createdAt,value
2023-01-15T06:35:45.787Z,5.51
2023-01-15T06:36:45.953Z,5.32
2023-01-15T06:37:45.855Z,5.28
2023-01-15T06:38:45.666Z,5.26
2023-01-15T06:39:45.934Z,5.28
2023-01-15T06:40:45.666Z,5.29
2023-01-15T06:41:47.106Z,5.32
2023-01-15T06:42:45.687Z,5.42
2023-01-15T06:43:45.847Z,5.47
2023-01-15T06:44:45.777Z,5.43
2023-01-15T06:45:45.871Z,5.46
2023-01-15T06:46:45.811Z,5.51
2023-01-15T06:47:45.837Z,5.54
2023-01-15T06:48:45.738Z,5.54
2023-01-15T06:49:46.887Z,5.53
2023-01-15T06:50:45.769Z,5.47
2023-01-15T06:51:45.806Z,5.47
2023-01-15T06:52:46.027Z,5.53
2023-01-15T06:53:45.816Z,5.53
2023-01-15T06:54:45.704Z,5.51
2023-01-15T06:55:45.617Z,5.50
2023-01-15T06:56:45.668Z,5.46
2023-01-15T06:57:45.670Z,5.40
2023-01-15T06:58:45.987Z,5.32
2023-01-15T06:59:45.856Z,5.28
2023-01-15T07:00:46.106Z,5.25
2023-01-15T07:01:45.847Z,5.22
2023-01-15T07:02:45.837Z,5.26
2023-01-15T07:03:45.535Z,5.25
2023-01-15T07:04:45.619Z,5.22
2023-01-15T07:05:45.550Z,5.28
2023-01-15T07:06:45.713Z,5.22
2023-01-15T07:07:45.539Z,5.22
2023-01-15T07:08:45.603Z,5.22
2023-01-15T07:09:45.744Z,5.11
2023-01-15T07:10:45.382Z,5.04
2023-01-15T07:11:45.561Z,5.01
2023-01-15T07:12:45.470Z,4.99
2023-01-15T07:13:45.640Z,5.03
2023-01-15T07:14:45.336Z,5.03
2023-01-15T07:15:45.517Z,5.06
2023-01-15T07:16:45.395Z,5.07
2023-01-15T07:17:45.539Z,5.06
2023-01-15T07:18:45.427Z,5.08
2023-01-15T07:19:45.503Z,5.06
2023-01-15T07:20:45.426Z,4.95
2023-01-15T07:21:45.478Z,4.89
2023-01-15T07:22:45.558Z,4.85
2023-01-15T07:23:46.553Z,4.90
2023-01-15T07:24:45.384Z,4.89
2023-01-15T07:25:45.241Z,4.83
2023-01-15T07:26:45.499Z,4.80
2023-01-15T07:27:45.270Z,4.89
2023-01-15T07:28:45.374Z,4.90
2023-01-15T07:29:45.910Z,4.93
2023-01-15T07:30:45.627Z,4.92
2023-01-15T07:31:45.223Z,4.89
2023-01-15T07:32:45.860Z,4.89
2023-01-15T07:33:45.302Z,4.86
2023-01-15T07:34:45.380Z,4.92
2023-01-15T07:35:45.302Z,4.90
2023-01-15T07:36:45.422Z,4.95
2023-01-15T07:37:45.247Z,4.92
2023-01-15T07:38:45.362Z,5.01
2023-01-15T07:39:45.170Z,4.99
2023-01-15T07:40:45.041Z,4.98
2023-01-15T07:41:45.211Z,4.98
2023-01-15T07:42:45.403Z,5.04
2023-01-15T07:43:45.211Z,5.13
2023-01-15T07:44:46.086Z,5.22
2023-01-15T07:45:45.265Z,5.32
2023-01-15T07:46:45.074Z,5.32
2023-01-15T07:47:45.162Z,5.32
2023-01-15T07:48:45.089Z,5.32
2023-01-15T07:49:45.555Z,5.36
2023-01-15T07:50:45.102Z,5.31
2023-01-15T07:51:45.143Z,5.29
2023-01-15T07:52:45.050Z,5.21
2023-01-15T07:53:45.202Z,5.21
2023-01-15T07:54:45.077Z,5.28
2023-01-15T07:55:45.151Z,5.32
2023-01-15T07:56:45.053Z,5.36
2023-01-15T07:57:44.841Z,5.46
2023-01-15T07:58:45.100Z,5.57
2023-01-15T07:59:44.940Z,5.57
2023-01-15T08:00:45.553Z,5.47
2023-01-15T08:01:45.053Z,5.40
2023-01-15T08:02:45.013Z,5.40
2023-01-15T08:03:44.880Z,5.39
2023-01-15T08:04:45.012Z,5.39
2023-01-15T08:05:45.053Z,5.42
2023-01-15T08:06:45.085Z,5.39
2023-01-15T08:07:45.555Z,5.29
2023-01-15T08:08:45.048Z,5.28
2023-01-15T08:09:44.944Z,5.39
2023-01-15T08:10:45.013Z,5.40
2023-01-15T08:11:44.937Z,5.46
2023-01-15T08:12:44.804Z,5.40
2023-01-15T08:13:44.947Z,5.35
2023-01-15T08:14:44.892Z,5.31
2023-01-15T08:15:44.919Z,5.36
2023-01-15T08:16:44.859Z,5.46
2023-01-15T08:17:44.967Z,5.49
2023-01-15T08:18:44.743Z,5.49
2023-01-15T08:19:44.923Z,5.42
2023-01-15T08:20:47.033Z,5.43
2023-01-15T08:21:44.842Z,5.39
2023-01-15T08:22:44.988Z,5.39
2023-01-15T08:23:44.855Z,5.46
2023-01-15T08:24:44.802Z,5.54
2023-01-15T08:25:44.835Z,5.58
2023-01-15T08:26:44.724Z,5.69
2023-01-15T08:27:45.322Z,5.69
2023-01-15T08:28:44.857Z,5.62
2023-01-15T08:29:44.585Z,5.53
2023-01-15T08:30:44.822Z,5.42
2023-01-15T08:31:45.362Z,5.33
2023-01-15T08:32:44.873Z,5.22
2023-01-15T08:33:44.619Z,5.31
2023-01-15T08:34:44.783Z,5.29
2023-01-15T08:35:44.604Z,5.22
2023-01-15T08:36:44.764Z,5.19
2023-01-15T08:37:44.600Z,5.17
2023-01-15T08:38:44.645Z,5.11
2023-01-15T08:39:44.675Z,4.98
2023-01-15T08:40:44.662Z,4.93
2023-01-15T08:41:44.653Z,5.06
2023-01-15T08:42:44.750Z,5.07
2023-01-15T08:43:45.234Z,5.14
2023-01-15T08:44:44.543Z,5.17
2023-01-15T08:45:45.531Z,5.22
2023-01-15T08:46:44.514Z,5.26
2023-01-15T08:47:44.951Z,5.35
2023-01-15T08:48:44.429Z,5.28
2023-01-15T08:49:45.022Z,5.32
2023-01-15T08:50:44.395Z,5.28
2023-01-15T08:51:44.582Z,5.26
2023-01-15T08:52:44.695Z,5.29
2023-01-15T08:53:44.545Z,5.36
2023-01-15T08:54:44.932Z,5.40
2023-01-15T08:55:45.022Z,5.35
2023-01-15T08:56:44.960Z,5.35
2023-01-15T08:57:44.745Z,5.25
2023-01-15T08:58:44.513Z,5.22
2023-01-15T08:59:44.498Z,5.22
2023-01-15T09:00:44.715Z,5.25
2023-01-15T09:01:44.846Z,5.36
2023-01-15T09:02:44.474Z,5.44
2023-01-15T09:03:44.282Z,5.42
2023-01-15T09:04:44.446Z,5.53
2023-01-15T09:05:44.313Z,5.65
2023-01-15T09:06:44.771Z,5.64
2023-01-15T09:07:44.858Z,5.49
2023-01-15T09:08:44.471Z,5.19
2023-01-15T09:09:44.324Z,5.10
2023-01-15T09:10:44.319Z,5.16
2023-01-15T09:11:45.418Z,5.25
2023-01-15T09:12:44.708Z,5.36
2023-01-15T09:13:44.611Z,5.26
2023-01-15T09:14:56.866Z,5.21
2023-01-15T09:15:44.770Z,5.32
2023-01-15T09:16:44.207Z,5.39
2023-01-15T09:17:44.205Z,5.46
2023-01-15T09:18:44.137Z,5.32
2023-01-15T09:19:44.357Z,5.22
2023-01-15T09:20:44.103Z,5.16
2023-01-15T09:21:44.557Z,5.10
2023-01-15T09:22:44.112Z,5.17
2023-01-15T09:23:44.223Z,5.31
2023-01-15T09:24:44.107Z,5.44
2023-01-15T09:25:44.223Z,5.32
2023-01-15T09:26:44.104Z,5.26
2023-01-15T09:27:44.386Z,5.29
2023-01-15T09:28:44.206Z,5.31
2023-01-15T09:29:43.932Z,5.50
2023-01-15T09:30:44.292Z,5.57
2023-01-15T09:31:44.008Z,5.65
2023-01-15T09:32:44.343Z,5.62
2023-01-15T09:33:44.055Z,5.58
2023-01-15T09:34:44.137Z,5.61
2023-01-15T09:35:43.941Z,5.62
2023-01-15T09:36:44.156Z,5.65
2023-01-15T09:37:44.226Z,5.69
2023-01-15T09:38:44.333Z,5.76
2023-01-15T09:39:43.952Z,5.74
2023-01-15T09:40:44.114Z,5.72
2023-01-15T09:41:44.168Z,5.72
2023-01-15T09:42:43.994Z,5.71
2023-01-15T09:43:50.499Z,5.67
2023-01-15T09:44:44.086Z,5.58
2023-01-15T09:45:43.958Z,5.47
2023-01-15T09:46:43.882Z,5.62
2023-01-15T09:47:43.614Z,5.71
2023-01-15T09:48:43.776Z,5.74
2023-01-15T09:49:43.961Z,5.80
2023-01-15T09:50:43.766Z,5.76
2023-01-15T09:51:44.041Z,5.76
2023-01-15T09:52:43.804Z,5.83
2023-01-15T09:53:43.944Z,5.69
2023-01-15T09:54:43.773Z,5.57
2023-01-15T09:55:43.922Z,5.49
2023-01-15T09:56:43.803Z,5.51
2023-01-15T09:57:43.930Z,5.54
2023-01-15T09:58:43.803Z,5.51
2023-01-15T09:59:43.861Z,5.64
2023-01-15T10:00:44.102Z,5.65
2023-01-15T10:01:43.944Z,5.62
2023-01-15T10:02:44.127Z,5.69
2023-01-15T10:03:43.764Z,5.59
2023-01-15T10:04:44.113Z,5.57
2023-01-15T10:05:44.006Z,5.51
2023-01-15T10:06:43.762Z,5.59
2023-01-15T10:07:43.611Z,5.65
2023-01-15T10:08:44.542Z,5.74
2023-01-15T10:09:43.601Z,5.59
2023-01-15T10:10:44.124Z,5.69
2023-01-15T10:11:43.654Z,5.72
2023-01-15T10:12:43.703Z,5.72
2023-01-15T10:13:43.922Z,5.83
2023-01-15T10:14:44.076Z,5.87
2023-01-15T10:15:43.580Z,5.77
2023-01-15T10:16:43.634Z,5.79
2023-01-15T10:17:43.613Z,5.69
2023-01-15T10:18:43.540Z,5.68
2023-01-15T10:19:44.877Z,5.64
2023-01-15T10:20:43.518Z,5.51
2023-01-15T10:21:44.114Z,5.36
2023-01-15T10:22:43.732Z,5.35
2023-01-15T10:23:43.737Z,5.51
2023-01-15T10:24:43.612Z,5.58
2023-01-15T10:25:43.544Z,5.59
2023-01-15T10:26:44.181Z,5.76
2023-01-15T10:27:43.561Z,5.74
2023-01-15T10:28:43.481Z,5.76
2023-01-15T10:29:43.587Z,5.67
2023-01-15T10:30:44.378Z,5.65
2023-01-15T10:31:43.364Z,5.59
2023-01-15T10:32:56.914Z,5.62
2023-01-15T10:33:43.243Z,5.58
2023-01-15T10:34:44.063Z,5.47
2023-01-15T10:35:43.681Z,5.46
2023-01-15T10:36:43.721Z,5.35
2023-01-15T10:37:43.695Z,5.43
2023-01-15T10:38:43.912Z,5.32
2023-01-15T10:39:43.431Z,5.32
2023-01-15T10:40:43.805Z,5.35
2023-01-15T10:41:43.421Z,5.43
2023-01-15T10:42:43.454Z,5.44
2023-01-15T10:43:43.344Z,5.50
2023-01-15T10:44:43.471Z,5.50
2023-01-15T10:45:43.268Z,5.47
2023-01-15T10:46:43.448Z,5.46
2023-01-15T10:47:43.394Z,5.46
2023-01-15T10:48:43.172Z,5.58
2023-01-15T10:49:43.413Z,5.62
2023-01-15T10:50:43.222Z,5.62
2023-01-15T10:51:43.346Z,5.68
2023-01-15T10:52:44.812Z,5.69
2023-01-15T10:53:43.312Z,5.74
2023-01-15T10:54:43.503Z,5.69
2023-01-15T10:55:43.301Z,5.64
2023-01-15T10:56:42.884Z,5.59
2023-01-15T10:57:43.302Z,5.57
2023-01-15T10:58:45.345Z,5.54
2023-01-15T10:59:43.689Z,5.61
2023-01-15T11:00:43.137Z,5.61
2023-01-15T11:01:43.274Z,5.64
2023-01-15T11:02:43.383Z,5.61
2023-01-15T11:03:43.013Z,5.53
2023-01-15T11:04:45.603Z,5.61
2023-01-15T11:05:43.901Z,5.64
2023-01-15T11:06:43.454Z,5.69
2023-01-15T11:08:06.494Z,5.79
2023-01-15T11:09:43.756Z,5.83
2023-01-15T11:10:43.118Z,5.79
2023-01-15T11:11:42.327Z,5.83
2023-01-15T11:12:42.277Z,5.86
2023-01-15T11:13:42.361Z,5.85
2023-01-15T11:14:43.121Z,5.83
2023-01-15T11:15:43.051Z,5.82
2023-01-15T11:16:44.172Z,5.72
2023-01-15T11:17:43.276Z,5.79
2023-01-15T11:18:42.797Z,5.68
2023-01-15T11:19:43.046Z,5.61
2023-01-15T11:20:42.187Z,5.62
2023-01-15T11:21:44.548Z,5.67
2023-01-15T11:22:44.884Z,5.74
2023-01-15T11:23:43.092Z,5.79
2023-01-15T11:24:42.865Z,5.86
2023-01-15T11:25:43.225Z,5.86
2023-01-15T11:26:42.247Z,5.86
2023-01-15T11:27:42.887Z,5.79
2023-01-15T11:28:42.856Z,5.80
2023-01-15T11:29:42.097Z,5.87
2023-01-15T11:30:42.859Z,5.90
2023-01-15T11:31:42.951Z,5.90
2023-01-15T11:32:42.998Z,5.89
2023-01-15T11:33:42.729Z,5.86
2023-01-15T11:34:42.839Z,5.85
2023-01-15T11:35:43.098Z,5.85
2023-01-15T11:36:42.817Z,5.85
2023-01-15T11:37:42.688Z,5.85
2023-01-15T11:38:43.360Z,5.89
2023-01-15T11:39:42.678Z,5.86
2023-01-15T11:40:42.893Z,5.79
2023-01-15T11:41:42.637Z,5.85
2023-01-15T11:42:43.776Z,5.92
2023-01-15T11:43:42.655Z,5.95
2023-01-15T11:44:41.956Z,5.86
2023-01-15T11:45:42.700Z,5.87
2023-01-15T11:46:43.209Z,5.90
2023-01-15T11:47:44.818Z,5.80
2023-01-15T11:48:43.326Z,5.77
2023-01-15T11:49:42.681Z,5.80
2023-01-15T11:50:42.705Z,5.77
2023-01-15T11:51:42.669Z,5.86
2023-01-15T11:52:42.623Z,5.80
2023-01-15T11:53:42.660Z,5.80
2023-01-15T11:54:42.686Z,5.77
2023-01-15T11:55:42.597Z,5.83
2023-01-15T11:56:42.630Z,5.92
2023-01-15T11:57:41.838Z,5.97
2023-01-15T11:58:43.279Z,5.98
2023-01-15T11:59:42.651Z,5.92
2023-01-15T12:00:41.906Z,5.94
2023-01-15T12:01:42.658Z,5.95
2023-01-15T12:02:42.897Z,5.92
2023-01-15T12:03:42.693Z,6.03
2023-01-15T12:04:45.348Z,6.07
2023-01-15T12:05:42.347Z,6.08
2023-01-15T12:06:41.809Z,6.03
2023-01-15T12:07:42.320Z,6.11
2023-01-15T12:08:42.486Z,6.19
2023-01-15T12:09:42.337Z,6.16
2023-01-15T12:10:43.010Z,6.21
2023-01-15T12:11:42.298Z,6.26
2023-01-15T12:12:42.629Z,6.24
2023-01-15T12:13:42.367Z,6.15
2023-01-15T12:14:42.545Z,6.26
2023-01-15T12:15:42.410Z,6.21
2023-01-15T12:16:41.668Z,6.13
2023-01-15T12:17:42.477Z,6.07
2023-01-15T12:18:42.685Z,6.07
2023-01-15T12:19:42.450Z,5.98
2023-01-15T12:20:42.228Z,5.98
2023-01-15T12:21:42.347Z,6.08
2023-01-15T12:22:43.287Z,6.10
2023-01-15T12:23:42.372Z,6.04
2023-01-15T12:24:42.167Z,5.98
2023-01-15T12:25:42.506Z,5.95
2023-01-15T12:26:42.285Z,5.95
2023-01-15T12:27:42.338Z,5.90
2023-01-15T12:28:42.282Z,5.85
2023-01-15T12:29:41.510Z,5.76
2023-01-15T12:30:42.435Z,5.79
2023-01-15T12:31:42.744Z,5.90
2023-01-15T12:32:42.224Z,6.07
2023-01-15T12:33:42.327Z,6.00
2023-01-15T12:34:42.765Z,5.98
2023-01-15T12:35:42.048Z,6.03
2023-01-15T12:36:42.176Z,6.13
2023-01-15T12:37:41.445Z,6.15
2023-01-15T12:38:43.342Z,6.15
2023-01-15T12:39:42.747Z,6.27
2023-01-15T12:40:42.254Z,6.16
2023-01-15T12:41:41.667Z,6.01
2023-01-15T12:42:42.259Z,5.89
2023-01-15T12:43:42.079Z,5.76
2023-01-15T12:44:42.339Z,5.72
2023-01-15T12:45:42.367Z,5.76
2023-01-15T12:46:41.372Z,5.67
2023-01-15T12:47:43.421Z,5.59
2023-01-15T12:48:42.067Z,5.67
2023-01-15T12:49:42.368Z,5.79
2023-01-15T12:50:42.230Z,5.76
2023-01-15T12:51:42.118Z,5.82
2023-01-15T12:52:41.871Z,5.82
2023-01-15T12:53:41.251Z,5.92
2023-01-15T12:54:42.609Z,5.92
2023-01-15T12:55:42.139Z,5.94
2023-01-15T12:56:41.447Z,5.98
2023-01-15T12:57:43.510Z,6.04
2023-01-15T12:58:42.523Z,6.04
2023-01-15T12:59:42.068Z,6.01
2023-01-15T13:00:42.109Z,6.08
2023-01-15T13:01:41.255Z,6.10
2023-01-15T13:02:42.587Z,6.19
2023-01-15T13:03:41.957Z,6.16
2023-01-15T13:04:42.182Z,6.13
2023-01-15T13:05:41.999Z,6.07
2023-01-15T13:06:42.023Z,6.00
2023-01-15T13:07:41.105Z,5.98
2023-01-15T13:08:41.880Z,6.04
2023-01-15T13:09:41.069Z,6.07
2023-01-15T13:10:42.109Z,6.08
2023-01-15T13:11:43.259Z,6.10
2023-01-15T13:12:41.446Z,6.13
2023-01-15T13:13:42.700Z,6.07
2023-01-15T13:14:42.807Z,6.11
2023-01-15T13:15:41.822Z,6.13
2023-01-15T13:16:41.827Z,6.19
2023-01-15T13:17:41.658Z,6.19
2023-01-15T13:18:41.995Z,6.21
2023-01-15T13:19:42.985Z,6.11
2023-01-15T13:20:41.717Z,6.16
2023-01-15T13:21:41.040Z,6.03
2023-01-15T13:22:41.743Z,6.05
2023-01-15T13:23:41.879Z,6.04
2023-01-15T13:24:41.578Z,6.05
2023-01-15T13:25:41.722Z,6.01
2023-01-15T13:26:41.488Z,6.00
2023-01-15T13:27:40.938Z,5.97
2023-01-15T13:28:41.737Z,6.07
2023-01-15T13:29:41.920Z,6.10
2023-01-15T13:30:41.777Z,6.07
2023-01-15T13:31:41.770Z,5.94
2023-01-15T13:32:40.879Z,6.01
2023-01-15T13:33:42.148Z,6.05
2023-01-15T13:34:41.482Z,6.01
2023-01-15T13:35:41.727Z,6.03
2023-01-15T13:36:42.045Z,6.00
2023-01-15T13:37:40.780Z,6.01
2023-01-15T13:38:41.768Z,5.92
2023-01-15T13:39:41.359Z,5.94
2023-01-15T13:40:41.664Z,5.95
2023-01-15T13:41:41.458Z,5.94
2023-01-15T13:42:40.732Z,6.00
2023-01-15T13:43:41.418Z,6.08
2023-01-15T13:44:41.813Z,6.11
2023-01-15T13:45:42.188Z,6.07
2023-01-15T13:46:41.540Z,6.01
2023-01-15T13:48:12.222Z,5.97
2023-01-15T13:49:13.129Z,5.97
2023-01-15T13:50:12.074Z,5.94
2023-01-15T13:51:12.959Z,6.04
2023-01-15T13:52:11.346Z,6.11
2023-01-15T13:53:12.181Z,6.15
2023-01-15T13:54:11.327Z,6.11
2023-01-15T13:55:11.916Z,6.00
2023-01-15T13:56:12.848Z,5.90
2023-01-15T13:57:11.289Z,5.94
2023-01-15T13:58:12.109Z,6.00
2023-01-15T13:59:12.079Z,6.05
2023-01-15T14:00:11.279Z,5.98
2023-01-15T14:01:12.072Z,6.04
2023-01-15T14:02:12.170Z,6.05
2023-01-15T14:03:11.959Z,6.10
2023-01-15T14:04:12.189Z,6.15
2023-01-15T14:05:11.268Z,6.18
2023-01-15T14:06:12.118Z,6.18
2023-01-15T14:07:11.199Z,6.13
2023-01-15T14:08:11.999Z,6.16
2023-01-15T14:09:12.056Z,6.15
2023-01-15T14:10:11.826Z,6.30
2023-01-15T14:11:11.919Z,6.35
2023-01-15T14:12:11.773Z,6.47
2023-01-15T14:13:12.039Z,6.56
2023-01-15T14:14:11.938Z,6.55
2023-01-15T14:15:11.992Z,6.57
2023-01-15T14:16:12.018Z,6.66
2023-01-15T14:17:11.125Z,6.63
2023-01-15T14:18:11.869Z,6.66
2023-01-15T14:19:20.198Z,6.65
2023-01-15T14:20:12.782Z,6.70
2023-01-15T14:21:12.158Z,6.62
2023-01-15T14:22:11.059Z,6.52
2023-01-15T14:23:12.992Z,6.48
2023-01-15T14:24:12.748Z,6.56
2023-01-15T14:25:11.709Z,6.57
2023-01-15T14:26:11.031Z,6.66
2023-01-15T14:27:11.568Z,6.70
2023-01-15T14:28:11.847Z,6.66
2023-01-15T14:29:11.672Z,6.65
2023-01-15T14:30:11.518Z,6.63
2023-01-15T14:31:11.801Z,6.67
2023-01-15T14:32:12.622Z,6.67
2023-01-15T14:33:11.995Z,6.71
2023-01-15T14:34:11.827Z,6.74
2023-01-15T14:35:11.700Z,6.75
2023-01-15T14:36:11.739Z,6.81
2023-01-15T14:37:12.795Z,6.84
2023-01-15T14:38:12.320Z,6.85
2023-01-15T14:39:11.222Z,6.89
2023-01-15T14:40:12.981Z,6.83
2023-01-15T14:41:12.568Z,6.84
2023-01-15T14:42:11.280Z,6.85
2023-01-15T14:43:12.042Z,6.75
2023-01-15T14:44:11.942Z,6.59
2023-01-15T14:45:12.485Z,6.53
2023-01-15T14:46:11.877Z,6.52
2023-01-15T14:47:12.326Z,6.52
2023-01-15T14:49:41.697Z,6.49
2023-01-15T14:50:42.444Z,6.57
2023-01-15T14:51:42.161Z,6.63
2023-01-15T14:52:42.466Z,6.65
2023-01-15T14:53:42.025Z,6.60
2023-01-15T14:54:42.288Z,6.52
2023-01-15T14:55:42.346Z,6.49
2023-01-15T14:56:42.248Z,6.45
2023-01-15T14:57:42.966Z,6.42
2023-01-15T14:58:42.380Z,6.44
2023-01-15T14:59:42.108Z,6.38
2023-01-15T15:00:42.425Z,6.42
2023-01-15T15:02:04.102Z,6.45
2023-01-15T15:02:41.534Z,6.37
2023-01-15T15:04:04.807Z,6.37
2023-01-15T15:04:42.627Z,6.37
2023-01-15T15:06:43.011Z,6.37
2023-01-15T15:07:45.769Z,6.39
2023-01-15T15:09:05.061Z,6.45
2023-01-15T15:11:56.005Z,6.44
2023-01-15T15:13:17.150Z,6.44
2023-01-15T15:14:24.835Z,6.37
2023-01-15T15:15:47.736Z,6.35
2023-01-15T15:16:27.545Z,6.38
2023-01-15T15:18:36.353Z,6.38
2023-01-15T15:20:48.289Z,6.32
2023-01-15T15:22:59.056Z,6.26
2023-01-15T15:25:08.977Z,6.38
2023-01-15T15:26:58.795Z,6.38
2023-01-15T15:28:20.944Z,6.32
2023-01-15T15:28:59.188Z,6.18
2023-01-15T15:31:10.856Z,6.16
2023-01-15T15:33:23.504Z,6.16
2023-01-15T15:35:32.365Z,6.27
2023-01-15T15:37:42.425Z,6.27
2023-01-15T15:39:53.810Z,6.15
2023-01-15T15:42:04.093Z,6.26
2023-01-15T15:44:28.018Z,6.13
2023-01-15T15:46:26.215Z,6.18
2023-01-15T15:48:36.244Z,6.13
2023-01-15T15:50:47.238Z,6.21
2023-01-15T15:52:57.618Z,6.24
2023-01-15T15:55:08.085Z,6.29
2023-01-15T15:57:18.324Z,6.29
2023-01-15T15:59:27.745Z,6.39
2023-01-15T16:01:39.621Z,6.26
2023-01-15T16:04:22.265Z,6.42
2023-01-15T16:05:44.284Z,6.42
2023-01-15T16:06:23.180Z,6.48
2023-01-15T16:08:34.495Z,6.52
2023-01-15T16:10:46.244Z,6.39
2023-01-15T16:12:57.092Z,6.35
2023-01-15T16:15:07.524Z,6.34
2023-01-15T16:17:18.455Z,6.38
2023-01-15T16:19:28.194Z,6.34
2023-01-15T16:21:38.456Z,6.41
2023-01-15T16:23:49.905Z,6.57
2023-01-15T16:26:00.274Z,6.48
2023-01-15T16:28:11.026Z,6.44
2023-01-15T16:30:21.025Z,6.59
2023-01-15T16:32:31.492Z,6.53
2023-01-15T16:34:42.605Z,6.62
2023-01-15T16:36:53.949Z,6.59
2023-01-15T16:39:04.726Z,6.74
2023-01-15T16:41:15.211Z,6.57
2023-01-15T16:43:25.325Z,6.60
2023-01-15T16:45:36.357Z,6.60
2023-01-15T16:47:46.681Z,6.62
2023-01-15T16:49:57.969Z,6.57
2023-01-15T16:51:19.216Z,6.55
2023-01-15T16:51:58.169Z,6.62
2023-01-15T16:52:58.527Z,6.60
2023-01-15T16:54:19.247Z,6.62
2023-01-15T16:54:57.757Z,6.66
2023-01-15T16:56:19.107Z,6.57
2023-01-15T16:56:57.519Z,6.52
2023-01-15T16:58:19.256Z,6.48
2023-01-15T16:58:57.587Z,6.49
2023-01-15T17:00:19.485Z,6.44
2023-01-15T17:00:57.815Z,6.42
2023-01-15T17:02:19.287Z,6.39
2023-01-15T17:02:58.518Z,6.44
2023-01-15T17:04:19.027Z,6.44
2023-01-15T17:04:58.458Z,6.48
2023-01-15T17:06:19.946Z,6.49
2023-01-15T17:06:57.442Z,6.55
2023-01-15T17:07:57.579Z,6.56
2023-01-15T17:08:57.571Z,6.66
2023-01-15T17:09:57.464Z,6.65
2023-01-15T17:10:56.654Z,6.60
2023-01-15T17:11:57.527Z,6.63
2023-01-15T17:12:57.190Z,6.62
2023-01-15T17:13:57.427Z,6.63
2023-01-15T17:14:57.386Z,6.71
2023-01-15T17:15:57.478Z,6.67
2023-01-15T17:16:57.286Z,6.66
2023-01-15T17:17:57.408Z,6.67
2023-01-15T17:18:57.847Z,6.71
2023-01-15T17:19:57.528Z,6.67
2023-01-15T17:20:57.220Z,6.74
2023-01-15T17:21:57.347Z,6.77
2023-01-15T17:22:57.866Z,6.70
2023-01-15T17:23:57.307Z,6.74
2023-01-15T17:24:57.596Z,6.75
2023-01-15T17:25:57.389Z,6.74
2023-01-15T17:26:57.299Z,6.71
2023-01-15T17:27:57.196Z,6.70
2023-01-15T17:28:57.610Z,6.74
2023-01-15T17:29:57.389Z,6.74
2023-01-15T17:30:57.279Z,6.73
2023-01-15T17:31:57.055Z,6.71
2023-01-15T17:32:57.208Z,6.78
2023-01-15T17:33:57.082Z,6.81
2023-01-15T17:34:57.137Z,6.83
2023-01-15T17:35:57.205Z,6.78
2023-01-15T17:36:57.147Z,6.81
2023-01-15T17:37:57.056Z,6.81
2023-01-15T17:38:57.199Z,6.75
2023-01-15T17:39:57.102Z,6.73
2023-01-15T17:40:56.837Z,6.71
2023-01-15T17:41:57.045Z,6.74
2023-01-15T17:42:56.945Z,6.71
2023-01-15T17:43:57.297Z,6.77
2023-01-15T17:44:57.659Z,6.75
2023-01-15T17:45:58.320Z,6.75
2023-01-15T17:46:56.867Z,6.83
2023-01-15T17:47:57.126Z,6.78
2023-01-15T17:48:57.450Z,6.71
2023-01-15T17:49:58.430Z,6.75
2023-01-15T17:51:01.076Z,6.77
2023-01-15T17:51:57.110Z,6.70
2023-01-15T17:52:56.988Z,6.66
2023-01-15T17:53:57.080Z,6.67
2023-01-15T17:54:56.887Z,6.67
2023-01-15T17:55:56.766Z,6.71
2023-01-15T17:56:57.420Z,6.71
2023-01-15T17:57:56.758Z,6.66
2023-01-15T17:58:56.618Z,6.67
2023-01-15T17:59:56.869Z,6.67
2023-01-15T18:00:56.940Z,6.67
2023-01-15T18:01:57.153Z,6.66
2023-01-15T18:02:57.596Z,6.66
2023-01-15T18:03:57.100Z,6.63
2023-01-15T18:04:57.008Z,6.57
2023-01-15T18:05:56.857Z,6.57
2023-01-15T18:06:57.042Z,6.59
2023-01-15T18:07:56.971Z,6.59
2023-01-15T18:08:56.860Z,6.57
2023-01-15T18:09:56.821Z,6.57
2023-01-15T18:10:56.084Z,6.56
2023-01-15T18:11:56.814Z,6.55
2023-01-15T18:12:56.790Z,6.48
2023-01-15T18:14:06.301Z,6.48
2023-01-15T18:14:57.106Z,6.56
2023-01-15T18:15:56.911Z,6.56
2023-01-15T18:16:57.792Z,6.55
2023-01-15T18:20:23.031Z,6.57
2023-01-15T18:21:23.160Z,6.57
2023-01-15T18:22:25.244Z,6.56
2023-01-15T18:23:23.172Z,6.62
2023-01-15T18:24:23.262Z,6.59
2023-01-15T18:25:25.984Z,6.62
2023-01-15T18:26:22.947Z,6.57
2023-01-15T18:27:23.283Z,6.57
2023-01-15T18:28:23.961Z,6.52
2023-01-15T18:29:23.242Z,6.48
2023-01-15T18:30:23.029Z,6.52
2023-01-15T18:31:23.168Z,6.42
2023-01-15T18:32:23.138Z,6.45
2023-01-15T18:33:23.239Z,6.55
2023-01-15T18:34:23.033Z,6.52
2023-01-15T18:35:23.215Z,6.56
2023-01-15T18:36:23.016Z,6.55
2023-01-15T18:37:23.190Z,6.47
2023-01-15T18:38:22.992Z,6.49
2023-01-15T18:39:23.030Z,6.52
2023-01-15T18:40:23.480Z,6.52
2023-01-15T18:41:22.941Z,6.49
2023-01-15T18:42:23.106Z,6.48
2023-01-15T18:43:22.912Z,6.48
2023-01-15T18:44:23.022Z,6.49
2023-01-15T18:45:22.903Z,6.47
2023-01-15T18:46:23.281Z,6.45
2023-01-15T18:47:22.841Z,6.42
2023-01-15T18:48:22.959Z,6.44
2023-01-15T18:49:22.919Z,6.48
2023-01-15T18:50:22.936Z,6.41
2023-01-15T18:51:22.883Z,6.41
2023-01-15T18:52:23.316Z,6.38
2023-01-15T18:53:22.861Z,6.42
2023-01-15T18:54:22.923Z,6.52
2023-01-15T18:55:23.146Z,6.48
2023-01-15T18:56:22.900Z,6.48
2023-01-15T18:57:23.140Z,6.49
2023-01-15T18:58:22.751Z,6.47
2023-01-15T18:59:22.833Z,6.56
2023-01-15T19:00:22.930Z,6.63
2023-01-15T19:01:22.990Z,6.63
2023-01-15T19:02:22.918Z,6.62
2023-01-15T19:03:22.894Z,6.57
2023-01-15T19:04:23.422Z,6.55
2023-01-15T19:05:22.861Z,6.57
2023-01-15T19:06:23.732Z,6.59
2023-01-15T19:07:22.811Z,6.62
2023-01-15T19:08:22.665Z,6.56
2023-01-15T19:09:22.913Z,6.52
2023-01-15T19:10:23.571Z,6.59
2023-01-15T19:11:22.918Z,6.48
2023-01-15T19:12:23.250Z,6.48
2023-01-15T19:13:23.432Z,6.48
2023-01-15T19:14:23.411Z,6.52
2023-01-15T19:15:22.594Z,6.49
2023-01-15T19:16:23.080Z,6.49
2023-01-15T19:17:23.050Z,6.47
2023-01-15T19:18:22.705Z,6.45
2023-01-15T19:19:22.700Z,6.49
2023-01-15T19:20:23.078Z,6.55
2023-01-15T19:21:22.620Z,6.44
2023-01-15T19:22:22.630Z,6.37
2023-01-15T19:23:22.520Z,6.37
2023-01-15T19:24:22.592Z,6.41
2023-01-15T19:25:22.522Z,6.44
2023-01-15T19:26:23.075Z,6.44
2023-01-15T19:27:22.587Z,6.49
2023-01-15T19:28:21.781Z,6.49
2023-01-15T19:29:22.831Z,6.47
2023-01-15T19:30:22.422Z,6.47
2023-01-15T19:31:22.578Z,6.53
2023-01-15T19:32:22.350Z,6.49
2023-01-15T19:33:22.692Z,6.48
2023-01-15T19:34:33.490Z,6.42
2023-01-15T19:35:23.472Z,6.47
2023-01-15T19:36:23.880Z,6.44
2023-01-15T19:37:22.629Z,6.48
2023-01-15T19:38:22.331Z,6.55
2023-01-15T19:39:23.211Z,6.60
2023-01-15T19:40:22.446Z,6.62
2023-01-15T19:41:23.226Z,6.65
2023-01-15T19:42:22.321Z,6.67
2023-01-15T19:43:22.227Z,6.65
2023-01-15T19:44:23.504Z,6.57
2023-01-15T19:45:22.401Z,6.60
2023-01-15T19:46:23.017Z,6.62
2023-01-15T19:47:23.249Z,6.75
2023-01-15T19:48:22.411Z,6.85
2023-01-15T19:49:22.192Z,6.84
2023-01-15T19:50:22.771Z,6.81
2023-01-15T19:51:22.371Z,6.73
2023-01-15T19:52:22.884Z,6.66
2023-01-15T19:53:22.140Z,6.78
2023-01-15T19:54:22.362Z,6.80
2023-01-15T19:55:23.053Z,6.78
2023-01-15T19:56:22.664Z,6.74
2023-01-15T19:57:22.271Z,6.70
2023-01-15T19:58:23.318Z,6.65
2023-01-15T19:59:23.250Z,6.57
2023-01-15T20:00:22.119Z,6.59
2023-01-15T20:01:22.598Z,6.57
2023-01-15T20:02:22.131Z,6.65
2023-01-15T20:03:22.471Z,6.57
2023-01-15T20:04:21.991Z,6.57
2023-01-15T20:05:22.959Z,6.60
2023-01-15T20:06:22.470Z,6.74
2023-01-15T20:07:23.298Z,6.75
2023-01-15T20:08:22.322Z,6.89
2023-01-15T20:09:22.970Z,6.93
2023-01-15T20:10:22.090Z,6.99
2023-01-15T20:11:22.105Z,7.03
2023-01-15T20:12:22.015Z,7.02
2023-01-15T20:13:30.971Z,7.02
2023-01-15T20:14:22.320Z,6.99
2023-01-15T20:15:22.974Z,6.93
2023-01-15T20:16:22.898Z,6.85
2023-01-15T20:17:21.874Z,6.96
2023-01-15T20:18:22.121Z,6.93
2023-01-15T20:19:22.301Z,6.80
2023-01-15T20:20:22.933Z,6.70
2023-01-15T20:21:22.889Z,6.67
2023-01-15T20:22:22.012Z,6.67
2023-01-15T20:23:23.080Z,6.65
2023-01-15T20:24:22.277Z,6.67
2023-01-15T20:25:22.997Z,6.74
2023-01-15T20:26:22.332Z,6.80
2023-01-15T20:27:22.757Z,6.84
2023-01-15T20:28:22.635Z,6.81
2023-01-15T20:29:23.612Z,6.71
2023-01-15T20:30:22.746Z,6.70
2023-01-15T20:31:22.177Z,6.71
2023-01-15T20:32:23.161Z,6.78
2023-01-15T20:33:22.342Z,6.78
2023-01-15T20:34:22.264Z,6.67
2023-01-15T20:35:21.880Z,6.59
2023-01-15T20:36:22.201Z,6.48
2023-01-15T20:37:22.204Z,6.42
2023-01-15T20:38:21.742Z,6.45
2023-01-15T20:39:21.882Z,6.41
2023-01-15T20:40:21.744Z,6.41
2023-01-15T20:41:21.892Z,6.44
2023-01-15T20:42:21.672Z,6.35
2023-01-15T20:43:21.966Z,6.37
2023-01-15T20:44:22.600Z,6.37
2023-01-15T20:45:21.991Z,6.48
2023-01-15T20:46:21.892Z,6.55
2023-01-15T20:47:21.630Z,6.59
2023-01-15T20:48:22.483Z,6.49
2023-01-15T20:49:21.677Z,6.39
2023-01-15T20:50:22.033Z,6.34
2023-01-15T20:51:21.613Z,6.18